Time;durP1;ratioP1;P1;durP2;ratioP2;P2;SDS_P1;SDS_P2;PMS_P1;PMS_P2;Temp;Humidity;BMP_temperature;BMP_pressure;BME280_temperature;BME280_humidity;BME280_pressure;Samples;Min_cycle;Max_cycle;Signal;HPM_P1;HPM_P2
2023/05/23 00:00:01;;;;;;;21.37;18.67;;;;;;;;;;492856;29;1161;-75
2023/05/23 00:00:16;;;;;;;21.57;18.40;;;;;;;;;;493665;29;1248;-75
2023/05/23 00:00:32;;;;;;;20.58;18.10;;;;;;;;;;493280;29;1275;-75
2023/05/23 00:00:50;;;;;;;20.45;18.27;;;;;;;;;;494721;29;1390;-75
2023/05/23 00:01:06;;;;;;;21.77;18.67;;;;;;;;;;494716;29;1124;-76
2023/05/23 00:01:23;;;;;;;21.58;18.42;;;;;;;;;;496719;29;1255;-75
2023/05/23 00:01:39;;;;;;;20.90;18.70;;;;;;;;;;496024;29;1323;-77
2023/05/23 00:01:54;;;;;;;22.10;18.77;;;;;;;;;;497531;29;1003;-75
2023/05/23 00:02:12;;;;;;;23.37;18.93;;;;;;;;;;497843;29;1216;-75
2023/05/23 00:02:27;;;;;;;23.15;19.40;;;;;;;;;;498703;29;1377;-74
2023/05/23 00:02:43;;;;;;;24.08;19.60;;;;;;;;;;497783;29;1176;-75
2023/05/23 00:02:59;;;;;;;23.05;19.15;;;;;;;;;;497743;29;1189;-75
2023/05/23 00:03:14;;;;;;;22.83;18.95;;;;;;;;;;497717;29;1190;-75
2023/05/23 00:03:30;;;;;;;22.33;18.90;;;;;;;;;;498177;29;1231;-74
2023/05/23 00:03:46;;;;;;;21.73;18.87;;;;;;;;;;499849;29;1188;-74
2023/05/23 00:04:03;;;;;;;22.63;18.88;;;;;;;;;;492587;29;1152;-74
2023/05/23 00:04:19;;;;;;;21.77;18.52;;;;;;;;;;465441;29;1236;-74
2023/05/23 00:04:35;;;;;;;20.90;18.65;;;;;;;;;;484658;29;1390;-74
2023/05/23 00:04:51;;;;;;;21.05;18.75;;;;;;;;;;485944;29;1787;-76
2023/05/23 00:05:16;;;;;;;22.10;19.08;;;;;;;;;;482059;29;2043;-75
2023/05/23 00:05:35;;;;;;;23.25;19.15;;;;;;;;;;487945;29;1053;-74
2023/05/23 00:05:50;;;;;;;24.08;19.45;;;;;;;;;;487991;29;1301;-74
2023/05/23 00:06:20;;;;;;;22.58;19.02;;;;;;;;;;484577;29;1085;-76
2023/05/23 00:06:37;;;;;;;22.17;18.52;;;;;;;;;;488228;29;1536;-74
2023/05/23 00:06:53;;;;;;;21.17;18.73;;;;;;;;;;491216;29;994;-75
2023/05/23 00:07:12;;;;;;;22.77;18.80;;;;;;;;;;479832;29;1269;-73
2023/05/23 00:07:28;;;;;;;25.00;18.55;;;;;;;;;;488840;29;1463;-73
2023/05/23 00:08:16;;;;;;;23.65;18.77;;;;;;;;;;487416;29;1354;-74
2023/05/23 00:08:32;;;;;;;21.52;18.25;;;;;;;;;;488216;29;1513;-74
2023/05/23 00:08:51;;;;;;;22.30;18.37;;;;;;;;;;488381;29;1275;-74
2023/05/23 00:09:18;;;;;;;21.67;18.48;;;;;;;;;;485956;29;1262;-75
2023/05/23 00:09:37;;;;;;;21.77;18.50;;;;;;;;;;489474;29;976;-77
2023/05/23 00:09:52;;;;;;;22.90;18.75;;;;;;;;;;488981;29;1375;-75
2023/05/23 00:10:15;;;;;;;22.83;18.67;;;;;;;;;;483924;29;1444;-76
2023/05/23 00:10:31;;;;;;;21.70;18.40;;;;;;;;;;487969;29;964;-74
2023/05/23 00:10:46;;;;;;;20.80;18.25;;;;;;;;;;488989;29;1261;-75
2023/05/23 00:11:05;;;;;;;21.73;18.35;;;;;;;;;;489861;29;1434;-74
2023/05/23 00:11:26;;;;;;;20.38;18.13;;;;;;;;;;485500;29;1514;-74
2023/05/23 00:11:44;;;;;;;21.98;18.83;;;;;;;;;;487176;29;1451;-75
2023/05/23 00:12:01;;;;;;;22.95;19.40;;;;;;;;;;487161;29;1475;-75
2023/05/23 00:12:21;;;;;;;22.15;18.65;;;;;;;;;;477032;29;1453;-76
2023/05/23 00:12:46;;;;;;;22.20;18.35;;;;;;;;;;483961;29;2161;-75
2023/05/23 00:13:08;;;;;;;22.17;18.23;;;;;;;;;;484347;29;1553;-76
2023/05/23 00:13:23;;;;;;;20.50;18.27;;;;;;;;;;482413;29;1400;-76
2023/05/23 00:13:40;;;;;;;21.30;18.33;;;;;;;;;;487873;29;1466;-76
2023/05/23 00:14:01;;;;;;;21.75;18.58;;;;;;;;;;482424;29;1176;-76
2023/05/23 00:14:17;;;;;;;23.23;18.92;;;;;;;;;;481528;29;1347;-75
2023/05/23 00:14:35;;;;;;;22.70;18.85;;;;;;;;;;490015;29;1310;-77
2023/05/23 00:14:57;;;;;;;21.13;18.58;;;;;;;;;;489761;29;1050;-74
2023/05/23 00:15:13;;;;;;;22.42;18.65;;;;;;;;;;482450;29;1351;-75
2023/05/23 00:15:29;;;;;;;22.10;19.13;;;;;;;;;;489126;29;1533;-75
2023/05/23 00:15:47;;;;;;;22.42;19.27;;;;;;;;;;489429;29;1466;-77
2023/05/23 00:16:12;;;;;;;22.55;18.70;;;;;;;;;;488982;29;1297;-76
2023/05/23 00:16:33;;;;;;;20.75;18.48;;;;;;;;;;488915;29;1185;-75
2023/05/23 00:16:54;;;;;;;21.35;18.63;;;;;;;;;;490181;29;1342;-75
2023/05/23 00:17:13;;;;;;;21.45;18.88;;;;;;;;;;481729;29;1386;-75
2023/05/23 00:17:29;;;;;;;21.42;18.67;;;;;;;;;;489479;29;1379;-75
2023/05/23 00:17:45;;;;;;;23.27;19.27;;;;;;;;;;488149;29;1271;-74
2023/05/23 00:18:01;;;;;;;23.60;19.45;;;;;;;;;;488296;29;1419;-75
2023/05/23 00:18:17;;;;;;;23.00;19.17;;;;;;;;;;480079;29;1268;-75
2023/05/23 00:18:33;;;;;;;22.73;19.00;;;;;;;;;;485262;29;1268;-75
2023/05/23 00:18:49;;;;;;;23.55;18.92;;;;;;;;;;480768;29;1339;-75
2023/05/23 00:19:08;;;;;;;21.85;18.73;;;;;;;;;;484507;29;1384;-75
2023/05/23 00:19:24;;;;;;;20.70;18.50;;;;;;;;;;484998;29;1098;-75
2023/05/23 00:19:44;;;;;;;20.80;18.60;;;;;;;;;;482344;29;1360;-74
2023/05/23 00:20:00;;;;;;;21.08;18.75;;;;;;;;;;486523;29;1689;-74
2023/05/23 00:20:16;;;;;;;21.42;19.13;;;;;;;;;;478013;29;1078;-76
2023/05/23 00:20:34;;;;;;;24.25;19.67;;;;;;;;;;487168;29;1381;-73
2023/05/23 00:21:23;;;;;;;23.85;19.08;;;;;;;;;;480407;29;1526;-74
2023/05/23 00:21:42;;;;;;;21.80;19.08;;;;;;;;;;488791;29;1550;-74
2023/05/23 00:21:58;;;;;;;21.58;19.08;;;;;;;;;;488447;29;1235;-74
2023/05/23 00:22:19;;;;;;;21.63;19.15;;;;;;;;;;480091;29;1342;-75
2023/05/23 00:22:38;;;;;;;23.48;19.25;;;;;;;;;;493162;29;1623;-75
2023/05/23 00:22:57;;;;;;;24.42;19.17;;;;;;;;;;485562;29;956;-75
2023/05/23 00:23:19;;;;;;;24.50;19.23;;;;;;;;;;482126;29;1400;-75
2023/05/23 00:23:35;;;;;;;26.83;19.67;;;;;;;;;;490115;29;1494;-75
2023/05/23 00:23:53;;;;;;;24.90;19.13;;;;;;;;;;490723;29;1246;-75
2023/05/23 00:24:19;;;;;;;22.13;18.90;;;;;;;;;;483862;29;1206;-76
2023/05/23 00:24:35;;;;;;;23.35;19.50;;;;;;;;;;490799;29;1496;-75
2023/05/23 00:24:51;;;;;;;23.58;19.83;;;;;;;;;;483803;29;1050;-74
2023/05/23 00:25:13;;;;;;;23.60;19.17;;;;;;;;;;487597;29;2018;-75
2023/05/23 00:25:33;;;;;;;22.15;19.13;;;;;;;;;;491965;29;1349;-74
2023/05/23 00:25:54;;;;;;;21.33;19.02;;;;;;;;;;492371;29;1090;-74
2023/05/23 00:26:13;;;;;;;23.48;19.20;;;;;;;;;;490451;29;1480;-74
2023/05/23 00:26:35;;;;;;;23.48;19.20;;;;;;;;;;494041;29;1392;-75
2023/05/23 00:27:13;;;;;;;21.77;19.08;;;;;;;;;;495859;29;1396;-74
2023/05/23 00:27:29;;;;;;;24.42;19.15;;;;;;;;;;499433;29;1362;-74
2023/05/23 00:27:45;;;;;;;23.43;19.17;;;;;;;;;;499812;29;1438;-73
2023/05/23 00:28:01;;;;;;;22.23;19.02;;;;;;;;;;499561;29;1147;-74
2023/05/23 00:28:25;;;;;;;21.85;19.23;;;;;;;;;;488945;29;1384;-75
2023/05/23 00:29:01;;;;;;;22.13;19.40;;;;;;;;;;499833;29;1258;-75
2023/05/23 00:29:17;;;;;;;21.50;18.70;;;;;;;;;;487996;29;1471;-76
2023/05/23 00:29:32;;;;;;;21.45;18.40;;;;;;;;;;499709;29;1303;-74
2023/05/23 00:29:57;;;;;;;21.92;18.73;;;;;;;;;;495904;29;1424;-75
2023/05/23 00:30:13;;;;;;;21.85;18.80;;;;;;;;;;491170;29;1105;-74
2023/05/23 00:30:34;;;;;;;20.92;18.40;;;;;;;;;;498587;29;1178;-73
2023/05/23 00:30:49;;;;;;;21.25;18.75;;;;;;;;;;500568;28;1494;-74
2023/05/23 00:31:23;;;;;;;21.90;18.85;;;;;;;;;;499956;28;1413;-75
2023/05/23 00:31:39;;;;;;;21.63;18.63;;;;;;;;;;498029;28;909;-74
2023/05/23 00:31:55;;;;;;;22.80;19.07;;;;;;;;;;505994;28;1103;-74
2023/05/23 00:32:20;;;;;;;23.83;19.05;;;;;;;;;;495100;28;1027;-75
2023/05/23 00:32:35;;;;;;;21.95;18.77;;;;;;;;;;503481;28;1282;-73
2023/05/23 00:32:53;;;;;;;22.85;18.60;;;;;;;;;;507572;28;1356;-74
2023/05/23 00:33:15;;;;;;;23.00;18.85;;;;;;;;;;502513;28;1348;-75
2023/05/23 00:33:35;;;;;;;23.00;19.23;;;;;;;;;;505551;28;1391;-74
2023/05/23 00:33:50;;;;;;;24.30;19.73;;;;;;;;;;503286;28;1562;-73
2023/05/23 00:34:12;;;;;;;23.65;18.98;;;;;;;;;;500897;28;1301;-75
2023/05/23 00:34:31;;;;;;;23.48;18.40;;;;;;;;;;498049;28;1380;-74
2023/05/23 00:34:47;;;;;;;21.70;18.80;;;;;;;;;;504927;28;1305;-73
2023/05/23 00:35:03;;;;;;;22.52;19.40;;;;;;;;;;505183;28;1411;-75
2023/05/23 00:35:22;;;;;;;23.45;19.30;;;;;;;;;;492566;28;1300;-75
2023/05/23 00:35:38;;;;;;;24.38;19.40;;;;;;;;;;503796;28;1631;-74
2023/05/23 00:35:53;;;;;;;23.87;19.47;;;;;;;;;;495328;28;1134;-74
2023/05/23 00:36:15;;;;;;;23.48;19.38;;;;;;;;;;496979;28;1370;-72
2023/05/23 00:36:36;;;;;;;22.02;19.25;;;;;;;;;;501707;28;1496;-74
2023/05/23 00:36:53;;;;;;;23.30;19.08;;;;;;;;;;500483;28;1285;-74
2023/05/23 00:37:12;;;;;;;23.77;18.85;;;;;;;;;;496859;28;1185;-76
2023/05/23 00:37:31;;;;;;;21.88;18.40;;;;;;;;;;507297;28;1516;-74
2023/05/23 00:37:49;;;;;;;21.70;18.58;;;;;;;;;;507055;28;1066;-74
2023/05/23 00:38:13;;;;;;;23.27;18.73;;;;;;;;;;498395;28;1299;-75
2023/05/23 00:38:29;;;;;;;23.30;18.95;;;;;;;;;;504657;28;1224;-74
2023/05/23 00:38:48;;;;;;;23.38;18.73;;;;;;;;;;506013;28;947;-76
2023/05/23 00:39:18;;;;;;;21.27;18.75;;;;;;;;;;504720;28;1645;-75
2023/05/23 00:39:34;;;;;;;21.38;18.10;;;;;;;;;;507476;28;1208;-74
2023/05/23 00:39:50;;;;;;;20.57;17.97;;;;;;;;;;508696;28;963;-74
2023/05/23 00:40:14;;;;;;;21.92;18.23;;;;;;;;;;503234;28;1392;-74
2023/05/23 00:40:30;;;;;;;20.45;18.25;;;;;;;;;;505430;28;1285;-74
2023/05/23 00:40:49;;;;;;;21.67;18.40;;;;;;;;;;501793;28;1219;-74
2023/05/23 00:41:19;;;;;;;22.27;17.95;;;;;;;;;;502212;28;1206;-75
2023/05/23 00:41:56;;;;;;;20.65;17.92;;;;;;;;;;503114;28;920;-75
2023/05/23 00:42:30;;;;;;;21.41;18.46;;;;;;;;;;163230;28;10002105;-75
2023/05/23 00:42:55;;;;;;;21.45;18.30;;;;;;;;;;504598;28;1029;-74
2023/05/23 00:43:14;;;;;;;22.15;18.75;;;;;;;;;;497439;28;1339;-75
2023/05/23 00:43:30;;;;;;;21.88;18.60;;;;;;;;;;503633;28;1430;-74
2023/05/23 00:43:46;;;;;;;21.92;18.75;;;;;;;;;;501603;28;1331;-74
2023/05/23 00:44:05;;;;;;;21.70;18.53;;;;;;;;;;503761;28;995;-75
2023/05/23 00:44:20;;;;;;;20.95;18.75;;;;;;;;;;498797;28;1171;-75
2023/05/23 00:44:36;;;;;;;21.30;19.00;;;;;;;;;;504766;28;1242;-76
2023/05/23 00:44:58;;;;;;;22.03;18.83;;;;;;;;;;502125;28;1366;-74
2023/05/23 00:45:15;;;;;;;22.15;18.73;;;;;;;;;;496471;28;2063;-75
2023/05/23 00:45:31;;;;;;;23.13;19.13;;;;;;;;;;504468;28;1230;-74
2023/05/23 00:45:47;;;;;;;22.10;18.97;;;;;;;;;;506755;28;1083;-74
2023/05/23 00:46:13;;;;;;;21.75;19.20;;;;;;;;;;501385;28;1443;-75
2023/05/23 00:46:30;;;;;;;22.10;19.38;;;;;;;;;;504255;28;1478;-73
2023/05/23 00:46:53;;;;;;;22.67;18.88;;;;;;;;;;504813;28;1031;-74
2023/05/23 00:47:14;;;;;;;22.40;18.85;;;;;;;;;;498099;28;1447;-75
2023/05/23 00:47:30;;;;;;;22.65;19.17;;;;;;;;;;501643;28;1166;-74
2023/05/23 00:47:47;;;;;;;23.63;19.48;;;;;;;;;;491921;28;1263;-75
2023/05/23 00:48:11;;;;;;;24.33;19.65;;;;;;;;;;497295;28;1103;-73
2023/05/23 00:48:28;;;;;;;22.52;18.95;;;;;;;;;;506090;28;1007;-75
2023/05/23 00:49:09;;;;;;;21.38;19.08;;;;;;;;;;504186;28;1705;-74
2023/05/23 00:49:27;;;;;;;22.80;20.10;;;;;;;;;;492962;28;1233;-74
2023/05/23 00:49:42;;;;;;;22.33;19.90;;;;;;;;;;506992;28;1838;-74
2023/05/23 00:50:01;;;;;;;22.83;19.95;;;;;;;;;;504643;28;1028;-75
2023/05/23 00:50:17;;;;;;;22.48;19.65;;;;;;;;;;495028;28;1312;-74
2023/05/23 00:50:33;;;;;;;22.55;19.58;;;;;;;;;;505074;28;959;-73
2023/05/23 00:51:18;;;;;;;23.50;20.00;;;;;;;;;;504313;28;1181;-74
2023/05/23 00:51:35;;;;;;;23.92;19.83;;;;;;;;;;500978;28;1335;-74
2023/05/23 00:51:51;;;;;;;25.40;20.45;;;;;;;;;;505460;28;1360;-74
2023/05/23 00:52:13;;;;;;;24.00;20.67;;;;;;;;;;500293;28;1297;-75
2023/05/23 00:52:29;;;;;;;23.65;20.92;;;;;;;;;;507992;28;1339;-75
2023/05/23 00:52:48;;;;;;;24.02;20.60;;;;;;;;;;506879;28;1439;-75
2023/05/23 00:53:04;;;;;;;22.45;20.02;;;;;;;;;;501450;28;941;-75
2023/05/23 00:53:23;;;;;;;22.65;20.08;;;;;;;;;;497818;28;1305;-76
2023/05/23 00:53:39;;;;;;;26.02;20.60;;;;;;;;;;506380;28;1003;-74
2023/05/23 00:54:00;;;;;;;25.15;20.80;;;;;;;;;;505945;28;1301;-74
2023/05/23 00:54:24;;;;;;;25.73;21.10;;;;;;;;;;496471;28;1038;-73
2023/05/23 00:54:42;;;;;;;24.33;20.65;;;;;;;;;;497463;28;976;-76
2023/05/23 00:54:58;;;;;;;22.25;19.90;;;;;;;;;;504895;28;1118;-75
2023/05/23 00:55:14;;;;;;;23.02;19.85;;;;;;;;;;496943;28;1372;-76
2023/05/23 00:55:33;;;;;;;25.55;20.65;;;;;;;;;;502838;28;1521;-74
2023/05/23 00:55:48;;;;;;;22.90;20.40;;;;;;;;;;506609;28;1522;-75
2023/05/23 00:56:11;;;;;;;23.47;20.20;;;;;;;;;;504361;28;1217;-75
2023/05/23 00:56:30;;;;;;;25.40;20.63;;;;;;;;;;498487;28;1440;-74
2023/05/23 00:57:24;;;;;;;24.83;20.88;;;;;;;;;;500661;28;1459;-75
2023/05/23 00:57:43;;;;;;;23.00;20.40;;;;;;;;;;500138;28;1948;-75
2023/05/23 00:58:01;;;;;;;24.40;20.80;;;;;;;;;;503810;28;1442;-75
2023/05/23 00:58:20;;;;;;;23.85;20.05;;;;;;;;;;491041;28;1289;-74
2023/05/23 00:58:36;;;;;;;24.08;20.67;;;;;;;;;;504651;28;1360;-74
2023/05/23 00:58:53;;;;;;;24.33;21.05;;;;;;;;;;505123;28;1285;-75
2023/05/23 00:59:20;;;;;;;23.83;20.63;;;;;;;;;;493439;28;1297;-75
2023/05/23 00:59:44;;;;;;;25.25;20.88;;;;;;;;;;501581;28;1436;-75
2023/05/23 01:00:01;;;;;;;24.63;20.40;;;;;;;;;;503869;28;1080;-76
2023/05/23 01:00:19;;;;;;;24.70;20.80;;;;;;;;;;496511;28;1388;-74
2023/05/23 01:00:37;;;;;;;23.27;20.17;;;;;;;;;;506578;28;1227;-75
2023/05/23 01:00:56;;;;;;;23.50;20.33;;;;;;;;;;507027;28;1622;-74
2023/05/23 01:01:11;;;;;;;23.05;20.58;;;;;;;;;;499281;28;1319;-76
2023/05/23 01:01:29;;;;;;;23.30;20.80;;;;;;;;;;504697;28;1339;-75
2023/05/23 01:01:47;;;;;;;23.35;20.88;;;;;;;;;;504484;28;1231;-75
2023/05/23 01:02:23;;;;;;;22.70;20.15;;;;;;;;;;502956;28;1451;-75
2023/05/23 01:02:43;;;;;;;22.58;20.17;;;;;;;;;;499528;28;1261;-76
2023/05/23 01:03:27;;;;;;;22.55;20.15;;;;;;;;;;504739;28;1348;-75
2023/05/23 01:03:44;;;;;;;23.10;20.63;;;;;;;;;;502850;28;1153;-74
2023/05/23 01:04:20;;;;;;;22.83;20.40;;;;;;;;;;503841;28;1337;-75
2023/05/23 01:04:39;;;;;;;24.25;20.90;;;;;;;;;;499068;28;1386;-75
2023/05/23 01:04:57;;;;;;;23.73;20.40;;;;;;;;;;505123;28;1245;-75
2023/05/23 01:05:16;;;;;;;25.00;20.80;;;;;;;;;;497536;28;1946;-75
2023/05/23 01:05:31;;;;;;;23.27;20.77;;;;;;;;;;503960;28;1361;-74
2023/05/23 01:05:47;;;;;;;23.52;20.63;;;;;;;;;;504304;28;1101;-74
2023/05/23 01:06:11;;;;;;;24.93;21.20;;;;;;;;;;502827;28;1171;-75
2023/05/23 01:06:32;;;;;;;25.02;20.95;;;;;;;;;;501864;28;1343;-75
2023/05/23 01:06:48;;;;;;;23.00;20.50;;;;;;;;;;498171;28;1245;-75
2023/05/23 01:07:12;;;;;;;24.98;20.88;;;;;;;;;;499695;28;1248;-76
2023/05/23 01:07:28;;;;;;;25.85;21.65;;;;;;;;;;500338;28;1433;-75
2023/05/23 01:07:45;;;;;;;23.98;20.63;;;;;;;;;;500102;29;1143;-75
2023/05/23 01:08:16;;;;;;;23.70;20.60;;;;;;;;;;502900;28;1432;-75
2023/05/23 01:08:55;;;;;;;23.13;20.63;;;;;;;;;;504841;28;1217;-75
2023/05/23 01:09:31;;;;;;;23.08;20.60;;;;;;;;;;497350;28;1046;-74
2023/05/23 01:10:10;;;;;;;23.25;20.70;;;;;;;;;;507868;28;1203;-74
2023/05/23 01:10:27;;;;;;;25.40;21.02;;;;;;;;;;508944;28;1442;-76
2023/05/23 01:10:45;;;;;;;25.63;21.50;;;;;;;;;;506410;28;1360;-75
2023/05/23 01:11:13;;;;;;;25.48;21.48;;;;;;;;;;503506;28;1322;-75
2023/05/23 01:11:48;;;;;;;24.65;21.25;;;;;;;;;;503670;28;1172;-74
2023/05/23 01:12:25;;;;;;;24.13;21.15;;;;;;;;;;504813;28;1149;-74
2023/05/23 01:13:02;;;;;;;25.73;21.48;;;;;;;;;;507640;28;1393;-74
2023/05/23 01:13:38;;;;;;;24.52;21.60;;;;;;;;;;499699;28;1173;-74
2023/05/23 01:14:04;;;;;;;24.48;21.83;;;;;;;;;;508628;28;1156;-74
2023/05/23 01:14:37;;;;;;;25.00;21.95;;;;;;;;;;500714;28;1294;-74
2023/05/23 01:14:59;;;;;;;26.05;22.33;;;;;;;;;;504676;28;1364;-74
2023/05/23 01:15:20;;;;;;;26.67;21.95;;;;;;;;;;503409;28;1399;-74
2023/05/23 01:15:58;;;;;;;24.67;21.67;;;;;;;;;;507302;28;1458;-74
2023/05/23 01:16:23;;;;;;;24.65;21.63;;;;;;;;;;494048;28;1426;-74
2023/05/23 01:16:52;;;;;;;26.98;22.15;;;;;;;;;;503216;28;1301;-73
2023/05/23 01:17:40;;;;;;;26.35;22.65;;;;;;;;;;497778;28;1506;-75
2023/05/23 01:18:37;;;;;;;25.75;21.85;;;;;;;;;;497583;29;1825;-74
2023/05/23 01:19:01;;;;;;;25.63;22.08;;;;;;;;;;493589;29;1463;-75
2023/05/23 01:19:21;;;;;;;24.60;21.73;;;;;;;;;;490827;29;1119;-74
2023/05/23 01:19:49;;;;;;;24.63;21.88;;;;;;;;;;504550;28;1474;-75
2023/05/23 01:20:11;;;;;;;25.25;22.55;;;;;;;;;;502715;28;1143;-75
2023/05/23 01:20:49;;;;;;;25.35;22.50;;;;;;;;;;505010;28;1441;-74
2023/05/23 01:21:24;;;;;;;25.95;22.52;;;;;;;;;;502752;28;1687;-75
2023/05/23 01:21:51;;;;;;;27.17;22.63;;;;;;;;;;506903;28;1454;-75
2023/05/23 01:22:40;;;;;;;25.38;22.65;;;;;;;;;;503736;28;1087;-74
2023/05/23 01:22:59;;;;;;;25.20;22.35;;;;;;;;;;504690;28;1479;-74
2023/05/23 01:24:11;;;;;;;26.45;22.77;;;;;;;;;;490033;28;1229;-74
2023/05/23 01:25:06;;;;;;;26.05;23.25;;;;;;;;;;498997;29;1401;-74
2023/05/23 01:25:48;;;;;;;26.15;23.35;;;;;;;;;;488644;29;1261;-73
2023/05/23 01:26:25;;;;;;;25.67;22.90;;;;;;;;;;507133;28;1412;-75
2023/05/23 01:27:22;;;;;;;26.65;23.45;;;;;;;;;;505426;28;1487;-74
2023/05/23 01:27:47;;;;;;;26.67;23.15;;;;;;;;;;506205;28;1287;-74
2023/05/23 01:28:26;;;;;;;26.48;23.58;;;;;;;;;;505787;28;1570;-73
2023/05/23 01:28:46;;;;;;;25.63;23.10;;;;;;;;;;508465;28;1475;-74
2023/05/23 01:29:09;;;;;;;26.17;23.38;;;;;;;;;;504305;28;1229;-74
2023/05/23 01:29:31;;;;;;;25.77;23.08;;;;;;;;;;500380;28;1176;-73
2023/05/23 01:29:53;;;;;;;26.25;23.45;;;;;;;;;;502833;28;1395;-73
2023/05/23 01:30:19;;;;;;;25.80;22.98;;;;;;;;;;498061;28;1804;-73
2023/05/23 01:30:44;;;;;;;25.48;22.70;;;;;;;;;;503920;28;1071;-73
2023/05/23 01:31:02;;;;;;;26.05;22.98;;;;;;;;;;505471;28;1654;-73
2023/05/23 01:31:21;;;;;;;25.95;23.08;;;;;;;;;;499739;28;1231;-74
2023/05/23 01:31:41;;;;;;;24.65;22.05;;;;;;;;;;503042;28;934;-74
2023/05/23 01:31:59;;;;;;;27.10;22.88;;;;;;;;;;503967;28;1404;-73
2023/05/23 01:32:16;;;;;;;26.88;22.95;;;;;;;;;;497944;28;1426;-74
2023/05/23 01:32:32;;;;;;;24.75;22.15;;;;;;;;;;504130;28;1134;-74
2023/05/23 01:32:52;;;;;;;25.08;22.33;;;;;;;;;;504031;28;1284;-74
2023/05/23 01:33:10;;;;;;;26.70;23.10;;;;;;;;;;499979;28;1447;-75
2023/05/23 01:33:27;;;;;;;27.70;23.27;;;;;;;;;;501276;28;1376;-75
2023/05/23 01:33:53;;;;;;;;;;;;;;;;;;;;;
2023/05/23 01:34:12;;;;;;;25.80;23.02;;;;;;;;;;499289;28;1011;-74
2023/05/23 01:34:29;;;;;;;26.73;22.88;;;;;;;;;;502325;28;1341;-74
2023/05/23 01:34:57;;;;;;;26.67;23.33;;;;;;;;;;500189;28;1561;-73
2023/05/23 01:35:24;;;;;;;26.17;23.27;;;;;;;;;;501447;28;1011;-74
2023/05/23 01:35:42;;;;;;;25.48;22.98;;;;;;;;;;504091;28;1332;-74
2023/05/23 01:36:19;;;;;;;25.90;23.23;;;;;;;;;;502266;28;1439;-72
2023/05/23 01:36:45;;;;;;;25.38;22.83;;;;;;;;;;501738;28;1246;-74
2023/05/23 01:37:10;;;;;;;25.88;23.20;;;;;;;;;;507613;28;940;-73
2023/05/23 01:37:29;;;;;;;25.63;22.92;;;;;;;;;;499932;28;1110;-73
2023/05/23 01:37:45;;;;;;;25.55;22.85;;;;;;;;;;508439;28;1190;-74
2023/05/23 01:38:25;;;;;;;26.10;23.30;;;;;;;;;;506711;28;1514;-74
2023/05/23 01:38:43;;;;;;;25.40;22.75;;;;;;;;;;506336;28;1175;-74
2023/05/23 01:38:59;;;;;;;25.65;22.50;;;;;;;;;;506233;28;1417;-73
2023/05/23 01:39:17;;;;;;;26.35;22.50;;;;;;;;;;500687;28;1276;-75
2023/05/23 01:39:33;;;;;;;27.42;23.50;;;;;;;;;;509784;28;995;-74
2023/05/23 01:39:49;;;;;;;26.30;23.48;;;;;;;;;;508165;28;1329;-73
2023/05/23 01:40:14;;;;;;;26.00;23.30;;;;;;;;;;508414;28;1091;-74
2023/05/23 01:40:29;;;;;;;25.83;23.23;;;;;;;;;;507941;28;1644;-74
2023/05/23 01:41:05;;;;;;;25.40;22.83;;;;;;;;;;508092;28;1240;-74
2023/05/23 01:41:21;;;;;;;25.48;22.77;;;;;;;;;;498505;28;1216;-74
2023/05/23 01:41:37;;;;;;;25.25;22.60;;;;;;;;;;507797;28;1189;-73
2023/05/23 01:41:53;;;;;;;26.23;23.40;;;;;;;;;;510920;28;1164;-72
2023/05/23 01:42:12;;;;;;;26.90;23.70;;;;;;;;;;501607;28;1530;-73
2023/05/23 01:42:27;;;;;;;26.75;23.95;;;;;;;;;;504311;28;1372;-74
2023/05/23 01:42:43;;;;;;;26.07;23.33;;;;;;;;;;503184;28;1411;-73
2023/05/23 01:42:59;;;;;;;25.85;23.15;;;;;;;;;;500817;28;1431;-74
2023/05/23 01:43:15;;;;;;;26.40;23.58;;;;;;;;;;494047;28;1165;-74
2023/05/23 01:43:34;;;;;;;25.92;23.20;;;;;;;;;;502813;28;1365;-73
2023/05/23 01:43:50;;;;;;;26.65;23.85;;;;;;;;;;505374;28;1394;-74
2023/05/23 01:44:08;;;;;;;26.77;23.88;;;;;;;;;;497058;28;1390;-74
2023/05/23 01:44:24;;;;;;;26.83;23.95;;;;;;;;;;506445;28;1247;-73
2023/05/23 01:44:40;;;;;;;26.00;23.30;;;;;;;;;;506266;28;1351;-75
2023/05/23 01:45:05;;;;;;;25.88;23.17;;;;;;;;;;506820;28;1142;-74
2023/05/23 01:45:23;;;;;;;25.63;23.02;;;;;;;;;;497845;28;1960;-73
2023/05/23 01:45:42;;;;;;;25.95;23.35;;;;;;;;;;501567;28;1208;-74
2023/05/23 01:46:25;;;;;;;25.98;23.35;;;;;;;;;;507154;28;1489;-74
2023/05/23 01:46:43;;;;;;;25.70;23.10;;;;;;;;;;501972;28;1373;-73
2023/05/23 01:47:06;;;;;;;26.05;23.33;;;;;;;;;;500030;28;1087;-75
2023/05/23 01:47:22;;;;;;;25.42;22.77;;;;;;;;;;502008;28;1270;-74
2023/05/23 01:47:45;;;;;;;25.58;22.98;;;;;;;;;;505329;28;1193;-74
2023/05/23 01:48:13;;;;;;;25.95;23.25;;;;;;;;;;499778;28;1374;-75
2023/05/23 01:48:32;;;;;;;26.13;23.42;;;;;;;;;;501593;28;1308;-74
2023/05/23 01:48:52;;;;;;;25.85;23.15;;;;;;;;;;504338;28;1324;-74
2023/05/23 01:49:35;;;;;;;26.52;23.67;;;;;;;;;;498685;28;1461;-73
2023/05/23 01:49:57;;;;;;;26.25;23.48;;;;;;;;;;507570;28;1339;-74
2023/05/23 01:50:18;;;;;;;25.38;22.85;;;;;;;;;;497196;28;1424;-75
2023/05/23 01:50:35;;;;;;;25.85;23.27;;;;;;;;;;503543;28;1231;-74
2023/05/23 01:50:52;;;;;;;25.92;23.13;;;;;;;;;;502594;28;1516;-74
2023/05/23 01:51:29;;;;;;;25.65;22.90;;;;;;;;;;497132;28;1332;-74
2023/05/23 01:51:45;;;;;;;25.60;22.90;;;;;;;;;;504862;28;1304;-73
2023/05/23 01:52:01;;;;;;;25.88;23.02;;;;;;;;;;501901;28;1271;-73
2023/05/23 01:52:40;;;;;;;25.55;22.85;;;;;;;;;;496402;28;1489;-74
2023/05/23 01:52:59;;;;;;;24.98;22.40;;;;;;;;;;502853;28;1503;-73
2023/05/23 01:53:21;;;;;;;24.92;22.30;;;;;;;;;;493554;28;1452;-74
2023/05/23 01:53:37;;;;;;;25.67;22.98;;;;;;;;;;498577;28;1091;-72
2023/05/23 01:53:52;;;;;;;25.13;22.63;;;;;;;;;;503441;28;1401;-74
2023/05/23 01:54:13;;;;;;;25.73;23.05;;;;;;;;;;494415;28;1341;-74
2023/05/23 01:54:29;;;;;;;24.88;22.35;;;;;;;;;;501777;28;1195;-74
2023/05/23 01:54:47;;;;;;;24.15;21.63;;;;;;;;;;501661;28;1525;-73
2023/05/23 01:55:25;;;;;;;24.85;22.17;;;;;;;;;;502828;28;1496;-74
2023/05/23 01:55:41;;;;;;;24.65;22.15;;;;;;;;;;496787;28;1372;-73
2023/05/23 01:56:02;;;;;;;24.95;22.38;;;;;;;;;;503816;28;1191;-74
2023/05/23 01:56:23;;;;;;;25.33;22.63;;;;;;;;;;491835;28;1185;-74
2023/05/23 01:57:00;;;;;;;25.42;22.83;;;;;;;;;;501454;28;1303;-74
2023/05/23 01:57:16;;;;;;;24.73;22.17;;;;;;;;;;500461;28;1014;-73
2023/05/23 01:57:39;;;;;;;24.95;22.30;;;;;;;;;;503827;28;1394;-74
2023/05/23 01:57:58;;;;;;;24.85;22.25;;;;;;;;;;504285;28;1351;-73
2023/05/23 01:58:14;;;;;;;25.02;22.00;;;;;;;;;;495202;28;1481;-74
2023/05/23 01:58:32;;;;;;;24.87;22.10;;;;;;;;;;505562;28;1092;-74
2023/05/23 01:58:48;;;;;;;25.00;22.40;;;;;;;;;;495652;28;1312;-74
2023/05/23 01:59:15;;;;;;;24.80;22.20;;;;;;;;;;495508;28;1233;-74
2023/05/23 01:59:31;;;;;;;24.83;22.23;;;;;;;;;;503671;28;1390;-75
2023/05/23 01:59:47;;;;;;;24.27;21.83;;;;;;;;;;504891;28;1157;-75
2023/05/23 02:00:10;;;;;;;24.52;21.92;;;;;;;;;;505053;28;1300;-75
2023/05/23 02:00:26;;;;;;;25.02;22.30;;;;;;;;;;506821;28;1388;-75
2023/05/23 02:00:45;;;;;;;24.75;22.20;;;;;;;;;;506586;28;1680;-74
2023/05/23 02:01:00;;;;;;;24.33;21.92;;;;;;;;;;509041;28;1400;-76
2023/05/23 02:01:38;;;;;;;24.45;21.98;;;;;;;;;;493404;28;1223;-76
2023/05/23 02:01:54;;;;;;;23.65;21.25;;;;;;;;;;505900;28;1432;-74
2023/05/23 02:02:12;;;;;;;23.33;21.03;;;;;;;;;;499628;28;1557;-75
2023/05/23 02:02:34;;;;;;;22.73;20.42;;;;;;;;;;504900;28;1477;-75
2023/05/23 02:02:50;;;;;;;23.55;21.25;;;;;;;;;;509237;28;1404;-74
2023/05/23 02:03:18;;;;;;;23.88;21.42;;;;;;;;;;501584;28;1192;-75
2023/05/23 02:03:34;;;;;;;24.08;21.63;;;;;;;;;;508497;28;1427;-74
2023/05/23 02:03:50;;;;;;;24.05;21.55;;;;;;;;;;508180;28;1105;-73
2023/05/23 02:04:20;;;;;;;23.50;21.13;;;;;;;;;;507114;28;1251;-75
2023/05/23 02:04:39;;;;;;;23.02;20.77;;;;;;;;;;508539;28;1087;-74
2023/05/23 02:04:56;;;;;;;22.08;19.88;;;;;;;;;;507972;28;1450;-74
2023/05/23 02:05:12;;;;;;;22.13;20.00;;;;;;;;;;501646;28;1958;-75
2023/05/23 02:05:28;;;;;;;22.10;19.90;;;;;;;;;;505296;28;1575;-75
2023/05/23 02:05:49;;;;;;;22.10;19.90;;;;;;;;;;505550;28;1153;-75
2023/05/23 02:06:10;;;;;;;22.08;19.98;;;;;;;;;;498128;28;1229;-74
2023/05/23 02:06:26;;;;;;;22.65;20.40;;;;;;;;;;500430;28;1242;-74
2023/05/23 02:07:12;;;;;;;22.67;20.52;;;;;;;;;;501501;28;1391;-75
2023/05/23 02:07:30;;;;;;;22.63;20.23;;;;;;;;;;502167;28;1323;-75
2023/05/23 02:07:48;;;;;;;22.50;20.05;;;;;;;;;;503631;28;1348;-75
2023/05/23 02:08:10;;;;;;;22.17;19.88;;;;;;;;;;497716;28;1314;-75
2023/05/23 02:08:25;;;;;;;22.17;19.98;;;;;;;;;;500028;28;1252;-74
2023/05/23 02:08:47;;;;;;;22.15;19.85;;;;;;;;;;504631;28;1313;-75
2023/05/23 02:09:12;;;;;;;21.63;19.47;;;;;;;;;;500630;28;1186;-75
2023/05/23 02:09:28;;;;;;;21.13;19.13;;;;;;;;;;503056;28;1103;-74
2023/05/23 02:09:44;;;;;;;20.87;18.87;;;;;;;;;;505635;28;1271;-75
2023/05/23 02:09:59;;;;;;;21.13;19.13;;;;;;;;;;505997;28;1449;-74
2023/05/23 02:10:25;;;;;;;21.80;19.63;;;;;;;;;;497046;28;1331;-75